createdAt,value
2022-11-28T00:01:35.875Z,8.53
2022-11-28T00:04:04.267Z,8.43
2022-11-28T00:06:32.264Z,8.00
2022-11-28T00:09:00.671Z,8.67
2022-11-28T00:11:29.844Z,8.03
2022-11-28T00:13:57.719Z,8.47
2022-11-28T00:16:26.080Z,8.07
2022-11-28T00:18:55.722Z,7.77
2022-11-28T00:21:26.095Z,7.80
2022-11-28T00:23:54.245Z,7.83
2022-11-28T00:26:24.880Z,7.10
2022-11-28T00:28:54.188Z,7.70
2022-11-28T00:31:25.025Z,7.70
2022-11-28T00:33:53.167Z,7.60
2022-11-28T00:36:21.813Z,7.47
2022-11-28T00:38:50.446Z,7.30
2022-11-28T00:41:20.199Z,7.90
2022-11-28T00:43:49.175Z,7.73
2022-11-28T00:46:19.683Z,7.50
2022-11-28T00:48:48.005Z,7.33
2022-11-28T00:51:18.510Z,7.23
2022-11-28T00:53:48.701Z,7.87
2022-11-28T00:56:18.968Z,7.17
2022-11-28T00:58:49.102Z,7.73
2022-11-28T01:01:21.215Z,6.97
2022-11-28T01:03:50.153Z,7.63
2022-11-28T01:06:22.936Z,7.77
2022-11-28T01:08:51.053Z,7.53
2022-11-28T01:11:19.009Z,7.33
2022-11-28T01:13:46.829Z,8.17
2022-11-28T01:16:14.768Z,7.47
2022-11-28T01:18:44.140Z,7.80
2022-11-28T01:21:12.501Z,7.40
2022-11-28T01:23:40.361Z,7.80
2022-11-28T01:26:10.154Z,7.43
2022-11-28T01:28:38.081Z,7.37
2022-11-28T01:31:07.391Z,7.93
2022-11-28T01:33:35.496Z,7.57
2022-11-28T01:36:05.918Z,7.60
2022-11-28T01:38:35.169Z,7.60
2022-11-28T01:41:03.203Z,8.10
2022-11-28T01:43:31.519Z,7.73
2022-11-28T01:45:59.592Z,7.93
2022-11-28T01:48:30.253Z,7.60
2022-11-28T01:51:00.408Z,8.03
2022-11-28T01:53:32.854Z,8.00
2022-11-28T01:56:06.870Z,7.43
2022-11-28T01:58:36.957Z,8.00
2022-11-28T02:01:05.273Z,7.80
2022-11-28T02:03:40.260Z,8.20
2022-11-28T02:06:08.550Z,7.87
2022-11-28T02:08:38.446Z,8.03
2022-11-28T02:11:22.537Z,7.47
2022-11-28T02:13:57.643Z,8.00
2022-11-28T02:16:45.277Z,8.27
2022-11-28T02:19:45.754Z,7.93
2022-11-28T02:22:23.307Z,7.87
2022-11-28T02:25:09.877Z,7.73
2022-11-28T02:28:00.087Z,7.37
2022-11-28T02:30:34.638Z,7.90
2022-11-28T02:33:14.042Z,7.30
2022-11-28T02:36:03.662Z,8.13
2022-11-28T02:38:43.302Z,7.67
2022-11-28T02:41:20.064Z,8.17
2022-11-28T02:44:00.343Z,8.17
2022-11-28T02:46:37.192Z,7.93
2022-11-28T02:49:08.934Z,7.47
2022-11-28T02:51:41.496Z,8.03
2022-11-28T02:54:12.718Z,7.67
2022-11-28T02:56:47.498Z,8.20
2022-11-28T02:59:34.790Z,8.13
2022-11-28T03:02:03.256Z,7.80
2022-11-28T03:04:43.337Z,7.73
2022-11-28T03:07:22.267Z,7.87
2022-11-28T03:10:09.831Z,7.37
2022-11-28T03:12:49.485Z,7.20
2022-11-28T03:15:23.287Z,7.57
2022-11-28T03:17:57.924Z,7.40
2022-11-28T03:20:37.142Z,7.60
2022-11-28T03:23:14.157Z,7.93
2022-11-28T03:25:56.108Z,7.13
2022-11-28T03:28:28.478Z,7.93
2022-11-28T03:31:01.010Z,8.07
2022-11-28T03:33:32.620Z,7.67
2022-11-28T03:36:05.904Z,8.17
2022-11-28T03:38:37.143Z,8.03
2022-11-28T03:41:11.280Z,8.00
2022-11-28T03:43:42.782Z,7.90
2022-11-28T03:46:16.873Z,7.47
2022-11-28T03:48:48.294Z,7.67
2022-11-28T03:51:20.899Z,8.53
2022-11-28T03:53:54.823Z,7.30
2022-11-28T03:56:27.400Z,7.60
2022-11-28T03:59:00.681Z,7.33
2022-11-28T04:01:34.205Z,7.70
2022-11-28T04:04:13.514Z,7.80
2022-11-28T04:06:53.987Z,6.87
2022-11-28T04:09:31.750Z,7.70
2022-11-28T04:12:08.800Z,7.20
2022-11-28T04:14:45.171Z,7.13
2022-11-28T04:17:19.900Z,7.50
2022-11-28T04:19:51.725Z,7.27
2022-11-28T04:22:24.284Z,7.30
2022-11-28T04:24:55.060Z,7.37
2022-11-28T04:27:28.345Z,7.07
2022-11-28T04:29:59.611Z,6.60
2022-11-28T04:32:30.031Z,8.00
2022-11-28T04:35:03.517Z,7.70
2022-11-28T04:37:35.105Z,7.70
2022-11-28T04:40:04.274Z,6.93
2022-11-28T04:42:36.520Z,7.50
2022-11-28T04:45:09.976Z,7.33
2022-11-28T04:47:37.897Z,7.60
2022-11-28T04:50:06.948Z,7.70
2022-11-28T04:52:42.370Z,7.43
2022-11-28T04:55:16.723Z,7.30
2022-11-28T04:57:50.613Z,7.70
2022-11-28T05:00:23.063Z,7.80
2022-11-28T05:02:53.904Z,7.33
2022-11-28T05:05:24.441Z,7.70
2022-11-28T05:07:54.348Z,7.43
2022-11-28T05:10:22.455Z,8.07
2022-11-28T05:12:50.297Z,8.17
2022-11-28T05:15:19.117Z,8.10
2022-11-28T05:17:47.472Z,8.10
2022-11-28T05:20:15.468Z,8.00
2022-11-28T05:22:43.341Z,7.33
2022-11-28T05:25:12.649Z,7.50
2022-11-28T05:27:40.519Z,8.43
2022-11-28T05:30:09.684Z,7.67
2022-11-28T05:32:37.608Z,7.73
2022-11-28T05:35:06.384Z,7.53
2022-11-28T05:37:35.133Z,8.70
2022-11-28T05:40:03.444Z,8.33
2022-11-28T05:42:35.339Z,7.87
2022-11-28T05:45:03.520Z,7.97
2022-11-28T05:47:32.272Z,7.60
2022-11-28T05:50:00.204Z,8.43
2022-11-28T05:52:32.101Z,8.20
2022-11-28T05:55:01.423Z,8.60
2022-11-28T05:57:31.843Z,8.40
2022-11-28T06:00:01.043Z,8.73
2022-11-28T06:02:28.886Z,8.93
2022-11-28T06:04:56.864Z,8.30
2022-11-28T06:07:24.838Z,8.47
2022-11-28T06:09:52.844Z,9.43
2022-11-28T06:12:20.637Z,9.10
2022-11-28T06:14:48.636Z,9.43
2022-11-28T06:17:17.801Z,9.40
2022-11-28T06:19:45.773Z,9.57
2022-11-28T06:22:13.648Z,9.77
2022-11-28T06:24:41.482Z,10.17
2022-11-28T06:27:09.281Z,10.87
2022-11-28T06:29:37.160Z,10.33
2022-11-28T06:32:05.091Z,10.93
2022-11-28T06:34:34.431Z,10.57
2022-11-28T06:37:02.409Z,11.23
2022-11-28T06:39:30.266Z,10.83
2022-11-28T06:41:58.051Z,10.37
2022-11-28T06:44:25.957Z,11.57
2022-11-28T06:46:54.571Z,11.73
2022-11-28T06:49:22.531Z,12.27
2022-11-28T06:51:51.759Z,12.10
2022-11-28T06:54:19.663Z,12.50
2022-11-28T06:56:47.482Z,11.80
2022-11-28T06:59:15.387Z,11.43
2022-11-28T07:01:43.237Z,12.23
2022-11-28T07:04:11.218Z,11.47
2022-11-28T07:06:39.466Z,12.23
2022-11-28T07:09:08.656Z,12.43
2022-11-28T07:11:36.718Z,11.07
2022-11-28T07:14:04.763Z,11.60
2022-11-28T07:16:34.253Z,11.30
2022-11-28T07:19:02.393Z,12.43
2022-11-28T07:21:30.940Z,11.50
2022-11-28T07:23:59.859Z,11.43
2022-11-28T07:26:29.285Z,11.67
2022-11-28T07:28:58.182Z,11.27
2022-11-28T07:31:31.661Z,11.07
2022-11-28T07:34:03.180Z,10.93
2022-11-28T07:36:31.282Z,11.50
2022-11-28T07:39:01.469Z,10.83
2022-11-28T07:41:31.054Z,11.43
2022-11-28T07:44:00.415Z,10.50
2022-11-28T07:46:31.051Z,10.57
2022-11-28T07:48:59.028Z,11.10
2022-11-28T07:51:29.138Z,10.47
2022-11-28T07:53:57.711Z,10.60
2022-11-28T07:56:35.076Z,9.87
2022-11-28T07:59:05.529Z,10.50
2022-11-28T08:01:35.669Z,10.90
2022-11-28T08:04:06.271Z,10.13
2022-11-28T08:06:37.308Z,9.77
2022-11-28T08:09:07.007Z,10.70
2022-11-28T08:11:36.014Z,10.30
2022-11-28T08:14:06.087Z,10.27
2022-11-28T08:16:34.660Z,10.10
2022-11-28T08:19:02.963Z,11.10
2022-11-28T08:21:32.507Z,11.03
2022-11-28T08:24:02.095Z,10.10
2022-11-28T08:26:31.647Z,9.80
2022-11-28T08:28:59.819Z,9.93
2022-11-28T08:31:30.542Z,9.93
2022-11-28T08:33:59.955Z,9.63
2022-11-28T08:36:29.309Z,10.00
2022-11-28T08:39:09.800Z,10.50
2022-11-28T08:41:46.071Z,10.23
2022-11-28T08:44:14.513Z,10.37
2022-11-28T08:46:43.682Z,10.00
2022-11-28T08:49:11.488Z,10.47
2022-11-28T08:51:39.406Z,10.57
2022-11-28T08:54:07.585Z,9.90
2022-11-28T08:56:35.706Z,10.13
2022-11-28T08:59:03.999Z,9.70
2022-11-28T09:01:32.070Z,9.57
2022-11-28T09:04:01.446Z,10.23
2022-11-28T09:06:29.643Z,9.87
2022-11-28T09:08:58.526Z,9.77
2022-11-28T09:11:26.387Z,9.87
2022-11-28T09:13:54.195Z,9.87
2022-11-28T09:16:22.249Z,9.43
2022-11-28T09:18:51.028Z,9.73
2022-11-28T09:21:20.249Z,9.70
2022-11-28T09:23:48.033Z,9.87
2022-11-28T09:26:17.741Z,9.40
2022-11-28T09:28:46.119Z,9.33
2022-11-28T09:31:15.029Z,9.93
2022-11-28T09:33:43.522Z,9.40
2022-11-28T09:36:13.221Z,8.70
2022-11-28T09:38:42.844Z,9.17
2022-11-28T09:41:41.233Z,8.93
2022-11-28T09:44:17.585Z,9.10
2022-11-28T09:46:47.460Z,9.13
2022-11-28T09:49:26.038Z,9.00
2022-11-28T09:51:57.790Z,9.63
2022-11-28T09:54:35.051Z,8.47
2022-11-28T09:57:04.687Z,8.63
2022-11-28T09:59:32.718Z,8.37
2022-11-28T10:02:12.049Z,8.60
2022-11-28T10:04:43.868Z,9.23
2022-11-28T10:07:19.980Z,8.97
2022-11-28T10:10:01.718Z,8.70
2022-11-28T10:12:40.183Z,8.80
2022-11-28T10:15:36.695Z,8.27
2022-11-28T10:18:25.115Z,9.27
2022-11-28T10:20:58.056Z,8.97
2022-11-28T10:23:31.148Z,9.17
2022-11-28T10:26:03.513Z,8.37
2022-11-28T10:28:34.941Z,8.87
2022-11-28T10:31:08.943Z,8.90
2022-11-28T10:33:45.467Z,8.80
2022-11-28T10:36:21.713Z,8.73
2022-11-28T10:38:49.745Z,8.73
2022-11-28T10:41:26.130Z,9.10
2022-11-28T10:44:01.427Z,8.43
2022-11-28T10:46:48.039Z,8.60
2022-11-28T10:49:31.938Z,8.87
2022-11-28T10:52:09.731Z,8.30
2022-11-28T10:54:55.794Z,8.60
2022-11-28T10:57:29.772Z,9.13
2022-11-28T11:00:04.141Z,8.90
2022-11-28T11:02:38.118Z,8.60
2022-11-28T11:05:07.852Z,8.40
2022-11-28T11:07:35.833Z,8.63
2022-11-28T11:10:15.965Z,8.73
2022-11-28T11:12:45.989Z,8.10
2022-11-28T11:15:24.322Z,8.80
2022-11-28T11:17:52.667Z,9.17
2022-11-28T11:20:36.643Z,8.60
2022-11-28T11:23:14.548Z,8.30
2022-11-28T11:25:49.561Z,9.00
2022-11-28T11:28:34.545Z,8.80
2022-11-28T11:31:04.431Z,9.10
2022-11-28T11:33:35.792Z,8.50
2022-11-28T11:36:05.545Z,8.07
2022-11-28T11:38:37.926Z,8.43
2022-11-28T11:41:28.314Z,8.87
2022-11-28T11:43:58.019Z,8.17
2022-11-28T11:46:25.929Z,8.77
2022-11-28T11:48:54.475Z,8.40
2022-11-28T11:51:25.174Z,8.50
2022-11-28T11:54:06.996Z,8.27
2022-11-28T11:56:38.876Z,8.47
2022-11-28T11:59:14.697Z,8.60
2022-11-28T12:01:45.812Z,8.43
2022-11-28T12:04:43.608Z,8.67
2022-11-28T12:07:16.459Z,8.93
2022-11-28T12:09:47.383Z,9.10
2022-11-28T12:12:19.420Z,8.73
2022-11-28T12:14:49.875Z,8.77
2022-11-28T12:17:57.158Z,8.80
2022-11-28T12:20:44.001Z,8.90
2022-11-28T12:23:26.946Z,8.37
2022-11-28T12:26:00.474Z,9.30
2022-11-28T12:28:44.450Z,9.30
2022-11-28T12:31:21.574Z,8.47
2022-11-28T12:33:59.836Z,9.37
2022-11-28T12:36:35.035Z,9.07
2022-11-28T12:39:18.217Z,9.27
2022-11-28T12:42:11.365Z,8.77
2022-11-28T12:44:57.697Z,9.60
2022-11-28T12:47:38.567Z,8.83
2022-11-28T12:50:17.945Z,8.87
2022-11-28T12:52:53.417Z,9.07
2022-11-28T12:55:30.396Z,8.60
2022-11-28T12:58:07.020Z,8.90
2022-11-28T13:00:40.236Z,8.97
2022-11-28T13:03:20.998Z,9.03
2022-11-28T13:05:58.571Z,8.93
2022-11-28T13:08:48.966Z,8.50
2022-11-28T13:11:28.903Z,8.93
2022-11-28T13:14:03.653Z,9.47
2022-11-28T13:16:39.192Z,9.33
2022-11-28T13:19:15.941Z,9.17
2022-11-28T13:21:50.424Z,9.57
2022-11-28T13:24:27.530Z,10.87
2022-11-28T13:27:03.803Z,8.80
2022-11-28T13:29:41.115Z,9.10
2022-11-28T13:32:17.604Z,9.57
2022-11-28T13:34:48.448Z,9.90
2022-11-28T13:40:20.165Z,9.30
2022-11-28T13:43:04.480Z,9.27
2022-11-28T13:45:39.249Z,9.23
2022-11-28T13:49:12.553Z,9.40
2022-11-28T13:51:34.248Z,9.43
2022-11-28T13:54:45.520Z,9.27
2022-11-28T13:57:23.165Z,9.67
2022-11-28T13:59:58.665Z,10.10
2022-11-28T14:02:37.157Z,9.57
2022-11-28T14:05:07.320Z,9.53
2022-11-28T14:07:37.621Z,10.13
2022-11-28T14:10:24.360Z,9.83
2022-11-28T14:13:07.271Z,9.87
2022-11-28T14:15:45.727Z,10.47
2022-11-28T14:18:55.821Z,10.33
2022-11-28T14:21:27.621Z,9.90
2022-11-28T14:24:03.329Z,10.10
2022-11-28T14:26:35.358Z,9.37
2022-11-28T14:29:05.745Z,10.27
2022-11-28T14:31:36.521Z,10.80
2022-11-28T14:34:06.355Z,10.03
2022-11-28T14:36:35.838Z,9.83
2022-11-28T14:39:32.362Z,10.40
2022-11-28T14:43:00.010Z,10.10
2022-11-28T14:45:44.517Z,10.00
2022-11-28T14:48:19.506Z,10.50
2022-11-28T14:50:59.061Z,10.53
2022-11-28T14:53:53.799Z,10.83
2022-11-28T14:56:27.972Z,10.63
2022-11-28T14:59:03.332Z,10.73
2022-11-28T15:01:45.502Z,10.73
2022-11-28T15:04:40.713Z,10.60
2022-11-28T15:07:21.870Z,10.37
2022-11-28T15:09:59.820Z,10.60
2022-11-28T15:12:38.903Z,10.93
2022-11-28T15:15:16.791Z,10.77
2022-11-28T15:17:48.485Z,10.30
2022-11-28T15:20:25.142Z,10.17
2022-11-28T15:22:53.710Z,11.50
2022-11-28T15:25:23.172Z,11.33
2022-11-28T15:27:53.616Z,11.33
2022-11-28T15:30:23.767Z,12.23
2022-11-28T15:32:54.916Z,11.70
2022-11-28T15:35:23.756Z,11.47
2022-11-28T15:37:54.498Z,12.13
2022-11-28T15:40:27.697Z,11.43
2022-11-28T15:42:57.005Z,11.83
2022-11-28T15:45:27.629Z,12.40
2022-11-28T15:47:57.269Z,11.13
2022-11-28T15:50:28.166Z,11.53
2022-11-28T15:52:58.334Z,11.40
2022-11-28T15:55:28.673Z,12.17
2022-11-28T15:58:18.915Z,14.25
2022-11-28T16:00:50.017Z,13.10
2022-11-28T16:03:23.979Z,11.20
2022-11-28T16:05:54.696Z,13.20
2022-11-28T16:08:28.658Z,13.17
2022-11-28T16:10:57.638Z,13.33
2022-11-28T16:13:27.053Z,12.73
2022-11-28T16:15:58.305Z,13.40
2022-11-28T16:18:27.780Z,13.90
2022-11-28T16:20:56.879Z,13.37
2022-11-28T16:23:30.055Z,13.80
2022-11-28T16:26:02.696Z,12.57
2022-11-28T16:28:36.629Z,14.17
2022-11-28T16:31:11.813Z,13.60
2022-11-28T16:33:41.347Z,13.40
2022-11-28T16:36:19.912Z,13.17
2022-11-28T16:38:49.211Z,13.60
2022-11-28T16:41:18.930Z,13.60
2022-11-28T16:43:51.515Z,13.30
2022-11-28T16:46:22.656Z,13.23
2022-11-28T16:48:54.352Z,14.27
2022-11-28T16:51:34.106Z,13.67
2022-11-28T16:54:22.551Z,13.93
2022-11-28T16:56:50.497Z,13.93
2022-11-28T16:59:21.332Z,13.43
2022-11-28T17:01:53.210Z,14.83
2022-11-28T17:04:22.727Z,13.40
2022-11-28T17:06:51.348Z,14.33
2022-11-28T17:09:19.987Z,14.07
2022-11-28T17:11:55.463Z,14.10
2022-11-28T17:14:24.848Z,13.60
2022-11-28T17:16:52.744Z,14.67
2022-11-28T17:19:20.537Z,14.53
2022-11-28T17:21:51.645Z,14.37
2022-11-28T17:24:22.887Z,14.27
2022-11-28T17:26:52.315Z,14.80
2022-11-28T17:29:21.261Z,14.80
2022-11-28T17:31:54.977Z,14.90
2022-11-28T17:34:24.770Z,14.70
2022-11-28T17:36:53.111Z,15.03
2022-11-28T17:39:21.639Z,14.70
2022-11-28T17:41:50.248Z,14.97
2022-11-28T17:44:19.883Z,14.53
2022-11-28T17:46:49.468Z,15.23
2022-11-28T17:49:19.097Z,14.53
2022-11-28T17:51:47.003Z,14.83
2022-11-28T17:54:17.795Z,14.00
2022-11-28T17:56:46.740Z,14.70
2022-11-28T17:59:16.091Z,14.73
2022-11-28T18:01:44.408Z,14.93
2022-11-28T18:04:12.331Z,14.70
2022-11-28T18:06:44.240Z,15.17
2022-11-28T18:09:13.939Z,14.63
2022-11-28T18:11:42.322Z,14.70
2022-11-28T18:14:10.665Z,15.43
2022-11-28T18:16:40.154Z,15.43
2022-11-28T18:19:08.258Z,14.20
2022-11-28T18:21:36.233Z,15.57
2022-11-28T18:24:07.084Z,15.43
2022-11-28T18:26:35.910Z,14.70
2022-11-28T18:29:03.861Z,14.80
2022-11-28T18:31:34.131Z,15.13
2022-11-28T18:34:04.360Z,14.27
2022-11-28T18:36:37.938Z,14.43
2022-11-28T18:39:10.371Z,14.77
2022-11-28T18:41:40.820Z,15.83
2022-11-28T18:44:09.136Z,14.83
2022-11-28T18:46:37.084Z,14.80
2022-11-28T18:49:05.751Z,16.17
2022-11-28T18:51:36.632Z,15.40
2022-11-28T18:54:06.175Z,15.07
2022-11-28T18:56:37.205Z,14.93
2022-11-28T18:59:06.476Z,15.17
2022-11-28T19:01:35.636Z,13.67
2022-11-28T19:04:07.651Z,15.20
2022-11-28T19:06:38.445Z,14.97
2022-11-28T19:09:09.817Z,14.60
2022-11-28T19:11:39.759Z,14.97
2022-11-28T19:14:09.197Z,15.07
2022-11-28T19:16:38.678Z,14.43
2022-11-28T19:19:07.261Z,14.77
2022-11-28T19:21:37.472Z,14.57
2022-11-28T19:24:07.893Z,14.27
2022-11-28T19:26:37.762Z,14.40
2022-11-28T19:29:07.661Z,14.40
2022-11-28T19:31:36.976Z,14.83
2022-11-28T19:34:08.444Z,15.43
2022-11-28T19:36:40.587Z,14.70
2022-11-28T19:39:09.340Z,15.33
2022-11-28T19:41:37.767Z,15.43
2022-11-28T19:44:07.068Z,14.70
2022-11-28T19:46:35.873Z,15.40
2022-11-28T19:49:05.471Z,15.00
2022-11-28T19:51:34.969Z,14.60
2022-11-28T19:54:04.173Z,14.53
2022-11-28T19:56:34.375Z,14.93
2022-11-28T19:59:03.010Z,14.90
2022-11-28T20:01:32.256Z,16.17
2022-11-28T20:04:01.899Z,14.90
2022-11-28T20:06:31.672Z,14.97
2022-11-28T20:09:02.106Z,14.60
2022-11-28T20:11:32.592Z,14.67
2022-11-28T20:14:02.864Z,14.47
2022-11-28T20:16:33.103Z,15.07
2022-11-28T20:19:02.275Z,14.80
2022-11-28T20:21:31.769Z,14.43
2022-11-28T20:24:04.207Z,14.63
2022-11-28T20:26:35.253Z,16.10
2022-11-28T20:29:05.100Z,15.30
2022-11-28T20:31:37.479Z,14.27
2022-11-28T20:34:07.015Z,15.13
2022-11-28T20:36:36.145Z,14.93
2022-11-28T20:39:05.296Z,15.07
2022-11-28T20:41:33.245Z,15.60
2022-11-28T20:44:01.567Z,15.67
2022-11-28T20:46:31.146Z,16.07
2022-11-28T20:49:01.661Z,16.37
2022-11-28T20:51:31.996Z,15.07
2022-11-28T20:54:00.644Z,14.97
2022-11-28T20:56:30.712Z,16.37
2022-11-28T20:59:00.493Z,16.70
2022-11-28T21:01:30.601Z,16.80
2022-11-28T21:04:00.183Z,16.27
2022-11-28T21:06:28.055Z,17.50
2022-11-28T21:08:56.743Z,17.47
2022-11-28T21:11:55.183Z,18.03
2022-11-28T21:14:15.122Z,18.57
2022-11-28T21:16:43.679Z,18.10
2022-11-28T21:19:14.029Z,17.73
2022-11-28T21:21:42.754Z,18.13
2022-11-28T21:24:14.006Z,17.80
2022-11-28T21:26:49.454Z,18.77
2022-11-28T21:29:20.839Z,18.63
2022-11-28T21:31:48.728Z,18.60
2022-11-28T21:34:19.090Z,18.43
2022-11-28T21:36:46.992Z,19.00
2022-11-28T21:39:16.761Z,18.90
2022-11-28T21:41:44.692Z,19.50
2022-11-28T21:44:12.567Z,19.00
2022-11-28T21:46:40.448Z,18.50
2022-11-28T21:49:08.288Z,18.40
2022-11-28T21:51:41.808Z,19.17
2022-11-28T21:54:11.059Z,19.50
2022-11-28T21:56:39.251Z,18.80
2022-11-28T21:59:07.499Z,20.10
2022-11-28T22:01:35.448Z,19.50
2022-11-28T22:04:04.495Z,19.67
2022-11-28T22:06:33.033Z,19.67
2022-11-28T22:09:09.146Z,19.50
2022-11-28T22:11:38.774Z,19.63
2022-11-28T22:14:06.720Z,19.53
2022-11-28T22:16:34.844Z,19.97
2022-11-28T22:19:04.031Z,19.37
2022-11-28T22:24:22.931Z,20.47
2022-11-28T22:26:50.842Z,20.30
2022-11-28T22:29:19.599Z,22.43
2022-11-28T22:31:47.579Z,21.30
2022-11-28T22:34:15.567Z,20.93
2022-11-28T22:36:44.032Z,22.57
2022-11-28T22:39:12.472Z,21.27
2022-11-28T22:41:41.809Z,20.37
2022-11-28T22:44:11.601Z,21.50
2022-11-28T22:46:39.875Z,21.00
2022-11-28T22:49:10.757Z,20.60
2022-11-28T22:51:40.802Z,20.90
2022-11-28T22:54:11.970Z,21.63
2022-11-28T22:56:41.348Z,22.50
2022-11-28T22:59:13.471Z,21.97
2022-11-28T23:01:43.320Z,21.07
2022-11-28T23:04:11.521Z,21.53
2022-11-28T23:06:39.450Z,22.30
2022-11-28T23:09:09.392Z,22.60
2022-11-28T23:11:40.134Z,21.87
2022-11-28T23:14:12.819Z,22.10
2022-11-28T23:16:42.316Z,22.07
2022-11-28T23:19:12.861Z,21.10
2022-11-28T23:21:43.851Z,21.90
2022-11-28T23:24:15.097Z,22.20
2022-11-28T23:26:44.689Z,21.83
2022-11-28T23:29:15.890Z,21.70
2022-11-28T23:31:44.967Z,21.83
2022-11-28T23:34:13.680Z,21.07
2022-11-28T23:36:43.306Z,22.20
2022-11-28T23:39:14.144Z,21.07
2022-11-28T23:41:42.501Z,21.57
2022-11-28T23:44:11.755Z,22.13
2022-11-28T23:46:41.764Z,20.87
2022-11-28T23:49:10.110Z,23.03
2022-11-28T23:51:38.590Z,22.77
2022-11-28T23:54:06.668Z,21.23
2022-11-28T23:56:36.169Z,21.27
2022-11-28T23:59:05.936Z,22.10
